New Castle, Colorado
Current Conditions -  °F | °C
As of 9:21 AM on Thursday 18 Dec 2014 (Local Time) from KRIL Reporting Station
Light Snow Light Snow  
Wind Chill: 33°   Ceiling: 300
Heat Index: 33°   Visibility: 2mi
Dew Point: 32°   Wind: 0mph
Humidity: 96%   Direction: NA
Pressure: 30.13"   Gusts: NA
Location:  39.57°N, 107.54°W
Report Text: KRIL 181621Z AUTO 00000KT 2SM -SN BR OVC003 01/00 A3013 RMK AO2 P0000 T00060000
Loading
Personal Weather Stations






























Interactive Weather Map New forecast layout! Learn more

10-Day Weather Forecast

Advertisements
Track Severe Weather on mobile